Time;durP1;ratioP1;P1;durP2;ratioP2;P2;SDS_P1;SDS_P2;PMS_P1;PMS_P2;Temp;Humidity;BMP_temperature;BMP_pressure;BME280_temperature;BME280_humidity;BME280_pressure;Samples;Min_cycle;Max_cycle;Signal;HPM_P1;HPM_P2
2022/11/09 00:01:23;;;;;;;2.42;1.58;;;14.80;99.90;;;;;;6244034;23;20011;-83
2022/11/09 00:03:54;;;;;;;4.35;1.50;;;14.80;99.90;;;;;;6244204;23;20015;-83
2022/11/09 00:06:20;;;;;;;3.45;1.45;;;14.90;99.90;;;;;;6217388;23;20005;-83
2022/11/09 00:08:45;;;;;;;2.78;1.40;;;14.90;99.90;;;;;;6242166;23;20027;-83
2022/11/09 00:11:11;;;;;;;3.28;1.40;;;14.80;99.90;;;;;;6246538;22;20000;-83
2022/11/09 00:13:39;;;;;;;4.80;1.60;;;14.80;99.90;;;;;;6247547;22;20318;-83
2022/11/09 00:16:06;;;;;;;3.90;1.60;;;14.80;99.90;;;;;;6274973;22;20011;-84
2022/11/09 00:18:34;;;;;;;3.97;1.80;;;14.80;99.90;;;;;;6274411;22;20003;-83
2022/11/09 00:21:06;;;;;;;3.17;1.40;;;14.80;99.90;;;;;;6247519;22;20014;-83
2022/11/09 00:23:31;;;;;;;4.38;1.70;;;14.80;99.90;;;;;;6272890;22;20473;-83
2022/11/09 00:26:01;;;;;;;2.90;1.38;;;14.80;99.90;;;;;;6274855;22;20110;-84
2022/11/09 00:28:26;;;;;;;4.00;1.30;;;14.80;99.90;;;;;;6274542;22;20003;-84
2022/11/09 00:31:14;;;;;;;2.95;1.40;;;14.80;99.90;;;;;;6274289;22;20394;-83
2022/11/09 00:33:40;;;;;;;3.25;1.58;;;14.80;99.90;;;;;;6274448;22;20324;-83
2022/11/09 00:36:10;;;;;;;3.65;1.50;;;14.80;99.90;;;;;;6274466;22;20026;-84
2022/11/09 00:38:39;;;;;;;4.40;1.42;;;14.70;99.90;;;;;;6274172;22;20008;-83
2022/11/09 00:41:06;;;;;;;3.35;1.50;;;14.70;99.90;;;;;;6222488;22;20033;-84
2022/11/09 00:43:32;;;;;;;4.28;1.60;;;14.70;99.90;;;;;;6247480;22;20426;-83
2022/11/09 00:45:58;;;;;;;3.33;1.40;;;14.70;99.90;;;;;;6274194;22;20082;-84
2022/11/09 00:48:24;;;;;;;4.28;1.70;;;14.70;99.90;;;;;;6274250;22;20004;-84
2022/11/09 00:50:55;;;;;;;3.22;1.48;;;14.70;99.90;;;;;;6247310;22;20017;-84
2022/11/09 00:53:22;;;;;;;5.20;1.73;;;14.70;99.90;;;;;;6247039;22;20035;-83
2022/11/09 00:56:00;;;;;;;2.50;1.40;;;14.70;99.90;;;;;;6274145;22;20014;-84
2022/11/09 00:58:28;;;;;;;3.70;1.50;;;14.70;99.90;;;;;;6221947;22;20012;-83
2022/11/09 01:00:55;;;;;;;3.03;1.42;;;14.60;99.90;;;;;;6247123;22;20564;-83
2022/11/09 01:03:22;;;;;;;2.67;1.10;;;14.70;99.90;;;;;;6247167;22;20010;-84
2022/11/09 01:05:48;;;;;;;4.82;1.65;;;14.70;99.90;;;;;;6272387;22;20011;-84
2022/11/09 01:08:16;;;;;;;2.85;1.40;;;14.70;99.90;;;;;;6274703;22;20030;-83
2022/11/09 01:10:46;;;;;;;3.05;1.30;;;14.60;99.90;;;;;;6272545;22;20011;-84
2022/11/09 01:13:15;;;;;;;3.45;1.30;;;14.60;99.90;;;;;;6274525;22;20012;-83
2022/11/09 01:15:52;;;;;;;4.82;1.40;;;14.60;99.90;;;;;;6274067;22;20031;-83
2022/11/09 01:18:19;;;;;;;2.35;1.30;;;14.60;99.90;;;;;;6272775;22;20014;-83
2022/11/09 01:20:48;;;;;;;2.50;1.20;;;14.60;99.90;;;;;;6273801;22;20014;-84
2022/11/09 01:23:16;;;;;;;3.13;1.40;;;14.60;99.90;;;;;;6274061;22;20007;-84
2022/11/09 01:25:42;;;;;;;2.97;1.55;;;14.60;99.90;;;;;;6246495;22;20008;-85
2022/11/09 01:28:09;;;;;;;3.90;1.85;;;14.60;99.90;;;;;;6274161;22;20488;-85
2022/11/09 01:30:37;;;;;;;2.97;1.40;;;14.60;99.90;;;;;;6221337;22;20632;-86
2022/11/09 01:33:04;;;;;;;2.45;1.30;;;14.60;99.90;;;;;;6246903;22;20015;-86
2022/11/09 01:35:34;;;;;;;3.35;1.50;;;14.60;99.90;;;;;;6272292;22;20185;-85
2022/11/09 01:38:01;;;;;;;4.00;1.50;;;14.60;99.90;;;;;;6272633;22;20049;-85
2022/11/09 01:40:27;;;;;;;4.75;1.55;;;14.60;99.90;;;;;;6273865;22;20011;-85
2022/11/09 01:42:53;;;;;;;2.60;1.35;;;14.60;99.90;;;;;;6272198;22;20449;-85
2022/11/09 01:45:23;;;;;;;3.38;1.30;;;14.60;99.90;;;;;;6246855;22;20113;-85
2022/11/09 01:48:00;;;;;;;3.08;1.60;;;14.60;99.90;;;;;;6274076;22;20391;-85
2022/11/09 01:50:36;;;;;;;4.32;1.48;;;14.60;99.90;;;;;;6274107;22;20011;-85
2022/11/09 01:53:06;;;;;;;3.53;1.45;;;14.60;99.90;;;;;;6247008;22;20148;-86
2022/11/09 01:55:32;;;;;;;2.92;1.15;;;14.60;99.90;;;;;;6272442;22;20080;-85
2022/11/09 01:58:09;;;;;;;3.35;1.15;;;14.60;99.90;;;;;;6246685;22;20019;-86
2022/11/09 02:00:37;;;;;;;4.28;1.45;;;14.60;99.90;;;;;;6246594;22;20431;-85
2022/11/09 02:03:13;;;;;;;3.80;1.80;;;14.60;99.90;;;;;;6272016;22;20015;-86
2022/11/09 02:05:41;;;;;;;4.38;1.30;;;14.60;99.90;;;;;;6244844;22;20004;-86
2022/11/09 02:08:11;;;;;;;3.75;1.45;;;14.50;99.90;;;;;;6270198;22;20363;-85
2022/11/09 02:10:44;;;;;;;2.90;1.40;;;14.50;99.90;;;;;;6246413;22;20644;-86
2022/11/09 02:13:13;;;;;;;3.17;1.52;;;14.50;99.90;;;;;;6272166;22;20016;-85
2022/11/09 02:15:40;;;;;;;3.83;1.40;;;14.50;99.90;;;;;;6272795;22;20004;-86
2022/11/09 02:18:06;;;;;;;4.45;1.58;;;14.50;99.90;;;;;;6273871;22;20012;-86
2022/11/09 02:20:50;;;;;;;3.05;1.60;;;14.50;99.90;;;;;;6271921;22;20012;-86
2022/11/09 02:23:17;;;;;;;4.00;1.40;;;14.50;99.90;;;;;;6273726;22;20008;-86
2022/11/09 02:25:48;;;;;;;4.55;1.30;;;14.40;99.90;;;;;;6246865;22;20008;-85
2022/11/09 02:28:15;;;;;;;4.93;1.50;;;14.40;99.90;;;;;;6273806;22;20007;-86
2022/11/09 02:30:45;;;;;;;3.80;1.60;;;14.40;99.90;;;;;;6271912;22;20079;-86
2022/11/09 02:33:11;;;;;;;3.25;1.30;;;14.40;99.90;;;;;;6247051;22;20012;-86
2022/11/09 02:35:37;;;;;;;4.75;1.30;;;14.40;99.90;;;;;;6246364;22;20435;-86
2022/11/09 02:38:09;;;;;;;4.43;1.35;;;14.50;99.90;;;;;;6248295;22;20042;-86
2022/11/09 02:40:37;;;;;;;5.82;1.50;;;14.40;99.90;;;;;;6248263;22;20008;-85
2022/11/09 02:43:06;;;;;;;;;;;14.40;99.90;;;;;;6274350;22;20007;-86
2022/11/09 02:45:32;;;;;;;4.35;1.58;;;14.40;99.90;;;;;;6248776;22;19934;-85
2022/11/09 02:47:58;;;;;;;5.28;1.60;;;14.40;99.90;;;;;;6248309;22;20007;-85
2022/11/09 02:50:25;;;;;;;4.15;1.50;;;14.30;99.90;;;;;;6248247;22;20083;-85
2022/11/09 02:52:51;;;;;;;7.45;1.83;;;14.40;99.90;;;;;;6273855;22;20008;-85
2022/11/09 02:55:18;;;;;;;5.45;1.42;;;14.30;99.90;;;;;;6248433;22;20043;-85
2022/11/09 02:57:44;;;;;;;4.68;1.27;;;14.30;99.90;;;;;;6273709;22;20038;-85
2022/11/09 03:00:13;;;;;;;6.65;1.75;;;14.30;99.90;;;;;;6248072;22;20009;-85
2022/11/09 03:02:40;;;;;;;4.10;1.42;;;14.30;99.90;;;;;;6273714;22;20057;-85
2022/11/09 03:05:06;;;;;;;4.63;1.77;;;14.30;99.90;;;;;;6273583;22;20007;-86
2022/11/09 03:07:33;;;;;;;6.97;1.55;;;14.30;99.90;;;;;;6248453;22;20426;-85
2022/11/09 03:09:58;;;;;;;6.40;1.42;;;14.30;99.90;;;;;;6247967;22;20010;-85
2022/11/09 05:28:05;;;;;;;6.70;2.17;;;14.20;99.90;;;;;;6219900;22;20101;-87
2022/11/09 05:41:24;;;;;;;5.20;1.40;;;14.20;99.90;;;;;;6064165;23;20155;-89
2022/11/09 06:26:08;;;;;;;9.55;1.85;;;14.00;99.90;;;;;;6193517;22;20028;-93
2022/11/09 06:28:35;;;;;;;7.22;1.67;;;14.00;99.90;;;;;;6217247;23;20008;-86
2022/11/09 06:58:35;;;;;;;8.38;2.03;;;14.00;99.90;;;;;;6218608;22;20028;-86
2022/11/09 07:01:21;;;;;;;7.07;1.40;;;14.00;99.90;;;;;;6245015;23;20005;-91
2022/11/09 08:08:03;;;;;;;8.77;1.83;;;13.90;99.90;;;;;;6154801;23;20353;-86
2022/11/09 08:10:40;;;;;;;5.00;1.15;;;13.90;99.90;;;;;;6127954;23;20005;-88
2022/11/09 08:13:13;;;;;;;6.03;1.52;;;13.90;99.90;;;;;;6174568;23;20005;-88
2022/11/09 08:15:41;;;;;;;7.30;1.65;;;13.90;99.90;;;;;;6157867;23;20076;-86
2022/11/09 08:18:16;;;;;;;10.27;1.95;;;13.90;99.90;;;;;;6184405;23;20005;-86
2022/11/09 08:20:43;;;;;;;24.55;2.70;;;13.90;99.90;;;;;;6183524;23;20035;-87
2022/11/09 08:23:13;;;;;;;79.20;7.55;;;13.90;99.90;;;;;;6132665;23;20009;-87
2022/11/09 08:25:40;;;;;;;32.47;4.10;;;13.90;99.90;;;;;;6156954;23;20009;-87
2022/11/09 08:28:06;;;;;;;191.50;18.88;;;13.90;99.90;;;;;;6157511;23;20001;-88
2022/11/09 08:30:32;;;;;;;60.30;6.40;;;13.90;99.90;;;;;;6157344;23;20017;-87
2022/11/09 08:32:59;;;;;;;16.27;2.45;;;13.90;99.90;;;;;;6183828;23;20008;-87
2022/11/09 08:35:26;;;;;;;6.15;1.30;;;14.00;99.90;;;;;;6181928;23;20086;-81
2022/11/09 08:37:52;;;;;;;9.73;1.65;;;14.00;99.90;;;;;;6183667;23;20071;-81
2022/11/09 08:40:23;;;;;;;11.65;1.60;;;14.00;99.90;;;;;;6183454;23;20040;-85
2022/11/09 08:42:49;;;;;;;15.10;2.00;;;14.00;99.90;;;;;;6157219;23;20012;-85
2022/11/09 08:45:18;;;;;;;34.28;4.68;;;14.00;99.90;;;;;;6157430;23;20107;-88
2022/11/09 08:47:45;;;;;;;8.65;1.50;;;14.00;99.90;;;;;;6180656;23;20013;-87
2022/11/09 08:50:18;;;;;;;21.77;2.78;;;14.00;99.90;;;;;;6155528;23;20037;-87
2022/11/09 08:52:46;;;;;;;47.15;5.07;;;14.00;99.90;;;;;;6182639;23;20436;-87
2022/11/09 08:55:14;;;;;;;15.13;2.45;;;14.10;99.90;;;;;;6183087;23;20012;-87
2022/11/09 08:57:40;;;;;;;12.70;2.10;;;14.00;99.90;;;;;;6155601;23;20005;-87
2022/11/09 09:00:07;;;;;;;65.93;7.47;;;14.10;99.90;;;;;;6182692;23;20012;-86
2022/11/09 09:02:32;;;;;;;59.80;7.85;;;14.10;99.90;;;;;;6181097;23;20016;-85
2022/11/09 09:04:58;;;;;;;40.20;6.95;;;14.10;99.90;;;;;;6154840;23;20005;-87
2022/11/09 09:07:24;;;;;;;28.08;6.53;;;14.20;99.90;;;;;;6182965;23;20036;-88
2022/11/09 09:09:50;;;;;;;12.30;3.75;;;14.20;99.90;;;;;;6156045;23;20092;-86
2022/11/09 09:14:56;;;;;;;8.57;2.00;;;14.20;99.90;;;;;;6153444;23;20025;-89
2022/11/09 09:17:40;;;;;;;23.05;3.85;;;14.30;99.90;;;;;;6155114;23;20432;-95
2022/11/09 09:21:18;;;;;;;13.85;1.58;;;14.30;99.90;;;;;;6155490;23;20020;-94
2022/11/09 09:24:34;;;;;;;7.57;1.48;;;14.30;99.90;;;;;;6116561;23;20097;-92
2022/11/09 09:27:01;;;;;;;9.30;2.15;;;14.40;99.90;;;;;;6094565;23;20038;-88
2022/11/09 09:33:11;;;;;;;7.65;1.73;;;14.50;99.90;;;;;;6183351;23;20016;-88
2022/11/09 09:35:37;;;;;;;6.32;1.58;;;14.60;99.90;;;;;;6180284;23;20097;-87
2022/11/09 09:38:03;;;;;;;8.90;2.15;;;14.60;99.90;;;;;;6156471;23;20013;-85
2022/11/09 09:40:49;;;;;;;8.40;1.40;;;14.60;99.90;;;;;;6181326;23;20012;-84
2022/11/09 09:43:26;;;;;;;4.40;1.40;;;14.60;99.90;;;;;;6179393;23;20744;-84
2022/11/09 09:45:53;;;;;;;4.88;1.30;;;14.70;99.90;;;;;;6178663;23;20040;-84
2022/11/09 09:48:38;;;;;;;9.23;1.83;;;14.70;99.90;;;;;;6182055;23;20012;-84
2022/11/09 09:51:17;;;;;;;8.88;1.52;;;14.70;99.90;;;;;;6182202;23;20012;-83
2022/11/09 09:54:08;;;;;;;8.55;1.48;;;14.70;99.90;;;;;;6182276;23;20013;-84
2022/11/09 09:56:38;;;;;;;3.55;1.30;;;14.70;99.90;;;;;;6181314;23;20095;-83
2022/11/09 09:59:36;;;;;;;5.28;1.20;;;14.70;99.90;;;;;;6208447;23;20440;-84
2022/11/09 10:02:02;;;;;;;9.13;1.80;;;14.60;99.90;;;;;;6184336;23;20035;-83
2022/11/09 10:04:40;;;;;;;7.55;1.77;;;14.60;99.90;;;;;;6184529;23;20738;-83
2022/11/09 10:07:19;;;;;;;5.53;1.42;;;14.70;99.90;;;;;;6186061;23;20412;-84
2022/11/09 10:10:16;;;;;;;8.85;2.03;;;14.70;99.90;;;;;;6159702;23;20019;-84
2022/11/09 10:13:09;;;;;;;8.02;1.95;;;14.70;99.90;;;;;;6183912;23;20432;-84
2022/11/09 10:15:47;;;;;;;8.68;1.85;;;14.80;99.90;;;;;;6184282;23;20020;-84
2022/11/09 10:18:32;;;;;;;10.32;1.92;;;14.80;99.90;;;;;;6159315;23;20032;-84
2022/11/09 10:21:17;;;;;;;7.43;1.35;;;14.90;99.90;;;;;;6184586;23;20369;-84
2022/11/09 10:24:05;;;;;;;6.75;1.05;;;14.90;99.90;;;;;;6185762;23;20332;-84
2022/11/09 10:26:48;;;;;;;23.95;1.98;;;15.00;99.90;;;;;;6184298;23;20005;-84
2022/11/09 10:29:22;;;;;;;14.23;2.95;;;15.00;99.90;;;;;;6184059;23;20005;-84
2022/11/09 10:31:51;;;;;;;22.25;4.25;;;15.00;99.90;;;;;;6184095;23;20050;-84
2022/11/09 10:34:31;;;;;;;24.20;3.10;;;15.00;99.90;;;;;;6184162;23;20347;-84
2022/11/09 10:36:56;;;;;;;13.55;2.83;;;15.00;99.90;;;;;;6184280;23;20028;-83
2022/11/09 10:39:25;;;;;;;10.32;1.88;;;15.10;99.90;;;;;;6159076;23;20012;-84
2022/11/09 10:42:10;;;;;;;20.17;2.67;;;15.10;99.90;;;;;;6205644;23;20028;-84
2022/11/09 10:44:55;;;;;;;11.63;1.60;;;15.10;99.90;;;;;;6184466;23;20024;-84
2022/11/09 10:47:50;;;;;;;6.60;1.08;;;15.10;99.90;;;;;;6184028;23;20023;-84
2022/11/09 10:50:46;;;;;;;13.80;1.23;;;15.10;99.90;;;;;;6185722;23;20020;-84
2022/11/09 10:53:32;;;;;;;18.67;4.10;;;15.10;99.90;;;;;;6185646;23;20036;-84
2022/11/09 10:56:19;;;;;;;9.88;1.55;;;15.10;99.90;;;;;;6205450;23;20071;-84
2022/11/09 10:59:38;;;;;;;8.68;1.17;;;15.10;99.90;;;;;;6203674;23;20066;-84
2022/11/09 11:02:25;;;;;;;6.18;1.15;;;15.10;99.90;;;;;;6182880;23;20067;-83
2022/11/09 11:05:10;;;;;;;12.90;1.60;;;15.10;99.90;;;;;;6182703;23;20024;-84
2022/11/09 11:07:55;;;;;;;9.10;1.63;;;15.10;99.90;;;;;;6182582;23;20050;-84
2022/11/09 11:10:39;;;;;;;26.80;2.78;;;15.10;99.90;;;;;;6183769;23;20356;-84
2022/11/09 11:13:24;;;;;;;8.25;1.55;;;15.10;99.90;;;;;;6182461;23;20105;-84
2022/11/09 11:16:27;;;;;;;10.27;2.58;;;15.00;99.90;;;;;;6183995;23;20024;-84
2022/11/09 11:19:35;;;;;;;11.13;2.05;;;15.00;99.90;;;;;;6183608;23;20160;-84
2022/11/09 11:22:22;;;;;;;6.82;1.50;;;15.00;99.90;;;;;;6183776;23;20071;-84
2022/11/09 11:25:33;;;;;;;10.68;2.03;;;15.00;99.90;;;;;;6203833;23;20044;-84
2022/11/09 11:28:23;;;;;;;5.88;0.95;;;15.10;99.90;;;;;;6183718;23;20040;-83
2022/11/09 11:31:14;;;;;;;5.95;1.35;;;15.10;99.90;;;;;;6182465;23;20016;-84
2022/11/09 11:34:00;;;;;;;8.90;1.17;;;15.10;99.90;;;;;;6203742;23;20028;-83
2022/11/09 11:37:04;;;;;;;7.50;1.40;;;15.10;99.90;;;;;;6182267;23;20108;-83
2022/11/09 11:40:06;;;;;;;5.13;1.20;;;15.10;99.90;;;;;;6203507;23;20035;-83
2022/11/09 11:42:54;;;;;;;6.07;1.58;;;15.10;99.90;;;;;;6183629;23;20404;-84
2022/11/09 11:45:55;;;;;;;10.05;2.00;;;15.00;99.90;;;;;;6182247;23;20405;-83
2022/11/09 11:48:53;;;;;;;25.08;3.40;;;15.00;99.90;;;;;;6184038;23;20108;-83
2022/11/09 11:51:50;;;;;;;22.67;3.55;;;15.00;99.90;;;;;;6183655;23;20016;-83
2022/11/09 11:55:03;;;;;;;8.82;1.45;;;15.00;99.90;;;;;;6182342;23;20073;-83
2022/11/09 11:58:31;;;;;;;7.28;1.30;;;15.00;99.90;;;;;;6203324;23;20193;-84
2022/11/09 12:01:15;;;;;;;14.50;1.65;;;15.00;99.90;;;;;;6151984;23;20075;-84
2022/11/09 12:04:27;;;;;;;26.02;4.13;;;15.00;99.90;;;;;;6181970;23;20067;-84
2022/11/09 12:07:21;;;;;;;32.33;4.28;;;15.10;99.90;;;;;;6183145;23;20021;-83
2022/11/09 12:10:17;;;;;;;17.02;2.33;;;15.10;99.90;;;;;;6181249;23;20140;-84
2022/11/09 12:13:29;;;;;;;32.17;3.33;;;15.10;99.90;;;;;;6181824;23;20096;-83
2022/11/09 12:16:31;;;;;;;9.20;1.50;;;15.10;99.90;;;;;;6181745;23;20020;-83
2022/11/09 12:19:29;;;;;;;11.90;1.55;;;15.10;99.90;;;;;;6183093;23;20016;-83
2022/11/09 12:22:38;;;;;;;16.08;2.10;;;15.10;99.90;;;;;;6181834;23;20063;-84
2022/11/09 12:25:34;;;;;;;23.55;3.28;;;15.10;99.90;;;;;;6183159;23;20063;-84
2022/11/09 12:28:26;;;;;;;9.63;1.80;;;15.20;99.90;;;;;;6181908;23;20484;-84
2022/11/09 12:31:32;;;;;;;11.43;1.40;;;15.20;99.90;;;;;;6182767;23;20051;-83
2022/11/09 12:34:20;;;;;;;10.07;1.63;;;15.20;99.90;;;;;;6181960;23;20078;-84
2022/11/09 12:37:20;;;;;;;11.07;1.67;;;15.10;99.90;;;;;;6181784;23;20020;-83
2022/11/09 12:40:24;;;;;;;8.45;2.30;;;15.10;99.90;;;;;;6181615;23;20023;-83
2022/11/09 12:43:42;;;;;;;10.13;2.88;;;15.00;99.90;;;;;;6182968;23;20020;-83
2022/11/09 12:46:33;;;;;;;12.32;2.35;;;15.10;99.90;;;;;;6175959;23;20019;-84
2022/11/09 12:49:38;;;;;;;14.43;2.58;;;15.20;99.90;;;;;;6182329;23;20075;-84
2022/11/09 12:52:26;;;;;;;9.32;1.88;;;15.20;99.90;;;;;;6181765;23;20020;-83
2022/11/09 12:55:34;;;;;;;6.22;1.30;;;15.20;99.90;;;;;;6202907;23;20036;-83
2022/11/09 12:58:25;;;;;;;151.43;11.10;;;15.30;99.90;;;;;;6182904;23;20020;-84
2022/11/09 13:01:31;;;;;;;29.30;3.67;;;15.20;99.90;;;;;;6181554;23;20024;-83
2022/11/09 13:04:18;;;;;;;12.27;2.42;;;15.20;99.90;;;;;;6180242;23;20340;-84
2022/11/09 13:07:02;;;;;;;13.82;2.55;;;15.30;99.90;;;;;;6182564;23;20016;-83
2022/11/09 13:09:53;;;;;;;12.30;2.30;;;15.30;99.90;;;;;;6181441;23;20020;-84
2022/11/09 13:12:41;;;;;;;14.27;3.60;;;15.30;99.90;;;;;;6181241;23;20068;-83
2022/11/09 13:15:27;;;;;;;12.00;1.95;;;15.30;99.90;;;;;;6182875;23;20027;-83
2022/11/09 13:18:45;;;;;;;14.57;2.90;;;15.20;99.90;;;;;;6202703;23;20051;-84
2022/11/09 13:21:33;;;;;;;9.90;1.85;;;15.20;99.90;;;;;;6202727;23;20040;-83
2022/11/09 13:24:29;;;;;;;15.90;2.50;;;15.30;99.90;;;;;;6181192;23;20020;-84
2022/11/09 13:27:37;;;;;;;10.20;1.83;;;15.20;99.90;;;;;;6182480;23;20104;-84
2022/11/09 13:30:24;;;;;;;11.00;2.00;;;15.20;99.90;;;;;;6182553;23;20019;-84
2022/11/09 13:33:18;;;;;;;13.68;1.98;;;15.20;99.90;;;;;;6182516;23;20052;-83
2022/11/09 13:36:05;;;;;;;10.85;2.60;;;15.20;99.90;;;;;;6182440;23;20016;-84
2022/11/09 13:39:22;;;;;;;11.98;2.95;;;15.20;99.90;;;;;;6181128;23;20093;-83
2022/11/09 13:42:31;;;;;;;12.18;2.30;;;15.30;99.90;;;;;;6182758;23;20284;-83
2022/11/09 13:45:42;;;;;;;8.63;2.33;;;15.30;99.90;;;;;;6202517;23;20471;-83
2022/11/09 13:48:39;;;;;;;14.95;3.05;;;15.30;99.90;;;;;;6202588;23;20068;-84
2022/11/09 13:51:35;;;;;;;15.05;3.13;;;15.30;99.90;;;;;;6181176;23;20387;-83
2022/11/09 13:54:27;;;;;;;11.35;2.88;;;15.30;99.90;;;;;;6181386;23;20348;-83
2022/11/09 13:57:12;;;;;;;10.15;2.17;;;15.30;99.90;;;;;;6202308;23;20054;-84
2022/11/09 13:59:58;;;;;;;9.60;1.90;;;15.30;99.90;;;;;;6182342;23;20074;-84
2022/11/09 14:03:14;;;;;;;12.07;2.30;;;15.20;99.90;;;;;;6202691;23;20020;-84
2022/11/09 14:06:01;;;;;;;10.02;1.70;;;15.20;99.90;;;;;;6180380;23;20470;-84
2022/11/09 14:08:46;;;;;;;7.68;1.70;;;15.10;99.90;;;;;;6202303;23;20486;-84
2022/11/09 14:12:00;;;;;;;9.60;2.30;;;15.10;99.90;;;;;;6202401;23;20064;-84
2022/11/09 14:15:05;;;;;;;11.65;1.70;;;15.10;99.90;;;;;;6181185;23;20024;-84
2022/11/09 14:18:25;;;;;;;5.45;1.20;;;15.10;99.90;;;;;;6182434;23;20024;-84
2022/11/09 14:21:55;;;;;;;10.85;1.55;;;15.00;99.90;;;;;;6182480;23;20394;-84
2022/11/09 14:24:39;;;;;;;6.55;2.15;;;15.00;99.90;;;;;;6181117;23;20099;-84
2022/11/09 14:27:24;;;;;;;10.60;2.05;;;15.00;99.90;;;;;;6180932;23;20064;-84
2022/11/09 14:30:19;;;;;;;11.15;1.40;;;15.00;99.90;;;;;;6182189;23;20036;-84
2022/11/09 14:33:24;;;;;;;8.57;1.67;;;15.00;99.90;;;;;;6181347;23;20091;-84
2022/11/09 14:36:11;;;;;;;7.10;1.50;;;14.90;99.90;;;;;;6204170;23;20055;-84
2022/11/09 14:38:58;;;;;;;9.70;1.50;;;14.90;99.90;;;;;;6204121;23;20024;-84
2022/11/09 14:41:44;;;;;;;9.25;1.45;;;14.90;99.90;;;;;;6204129;23;20414;-84
2022/11/09 14:44:38;;;;;;;9.82;1.50;;;14.90;99.90;;;;;;6182829;23;20519;-84
2022/11/09 14:47:32;;;;;;;8.63;1.77;;;14.90;99.90;;;;;;6183951;23;20016;-84
2022/11/09 14:50:21;;;;;;;9.30;2.50;;;14.90;99.90;;;;;;6184479;23;20024;-84
2022/11/09 14:53:06;;;;;;;8.02;2.60;;;15.00;99.90;;;;;;6182891;23;20063;-84
2022/11/09 14:55:53;;;;;;;10.43;2.17;;;14.90;99.90;;;;;;6183786;23;20020;-84
2022/11/09 14:58:40;;;;;;;6.35;1.73;;;14.90;99.90;;;;;;6184013;23;20047;-84
2022/11/09 15:01:26;;;;;;;8.95;1.95;;;14.80;99.90;;;;;;6184096;23;20112;-84
2022/11/09 15:04:25;;;;;;;8.25;1.83;;;14.80;99.90;;;;;;6203847;23;20044;-84
2022/11/09 15:07:18;;;;;;;8.52;2.45;;;14.80;99.90;;;;;;6184216;23;20016;-83
2022/11/09 15:10:18;;;;;;;8.07;1.98;;;14.80;99.90;;;;;;6182855;23;20078;-84
2022/11/09 15:13:02;;;;;;;9.15;2.33;;;14.80;99.90;;;;;;6183758;23;20020;-84
2022/11/09 15:15:52;;;;;;;12.02;2.00;;;14.80;99.90;;;;;;6182679;23;20233;-84
2022/11/09 15:18:44;;;;;;;8.32;1.80;;;14.80;99.90;;;;;;6203697;23;20020;-84
2022/11/09 15:21:37;;;;;;;8.20;2.22;;;14.80;99.90;;;;;;6183956;23;20100;-84
2022/11/09 15:24:24;;;;;;;6.47;1.63;;;14.70;99.90;;;;;;6182481;23;20024;-84
2022/11/09 15:27:29;;;;;;;8.43;1.52;;;14.70;99.90;;;;;;6183592;23;20059;-85
2022/11/09 15:30:31;;;;;;;5.22;1.30;;;14.70;99.90;;;;;;6203456;23;20016;-85
2022/11/09 15:33:28;;;;;;;4.72;1.13;;;14.60;99.90;;;;;;6182393;23;20017;-85
2022/11/09 15:36:21;;;;;;;3.95;0.95;;;14.50;99.90;;;;;;6203520;23;20020;-84
2022/11/09 15:39:14;;;;;;;4.97;1.33;;;14.50;99.90;;;;;;6183475;23;20051;-84
2022/11/09 15:41:58;;;;;;;4.25;1.10;;;14.50;99.90;;;;;;6182181;23;20071;-85
2022/11/09 15:44:42;;;;;;;4.50;1.25;;;14.40;99.90;;;;;;6182195;23;20567;-84
2022/11/09 15:47:31;;;;;;;7.63;1.48;;;14.30;99.90;;;;;;6182108;23;20059;-85
2022/11/09 15:50:20;;;;;;;4.28;1.63;;;14.30;99.90;;;;;;6203376;23;20459;-86
2022/11/09 15:53:04;;;;;;;8.07;1.75;;;14.30;99.90;;;;;;6183554;23;20075;-85
2022/11/09 15:55:49;;;;;;;5.75;1.33;;;14.20;99.90;;;;;;6182530;23;20623;-85
2022/11/09 15:58:34;;;;;;;5.53;1.20;;;14.20;99.90;;;;;;6203271;23;20078;-85
2022/11/09 16:01:18;;;;;;;7.28;1.30;;;14.20;99.90;;;;;;6182133;23;20047;-85
2022/11/09 16:04:02;;;;;;;6.88;1.40;;;14.10;99.90;;;;;;6183372;23;20104;-84
2022/11/09 16:06:46;;;;;;;8.73;1.60;;;14.10;99.90;;;;;;6183347;23;20020;-85
2022/11/09 16:09:30;;;;;;;10.10;2.10;;;14.10;99.90;;;;;;6181772;23;20359;-85
2022/11/09 16:12:14;;;;;;;6.47;1.98;;;14.10;99.90;;;;;;6183458;23;20024;-84
2022/11/09 16:14:59;;;;;;;11.52;2.55;;;14.10;99.90;;;;;;6183579;23;20097;-84
2022/11/09 16:17:43;;;;;;;7.05;2.20;;;14.10;99.90;;;;;;6181870;23;20524;-85
2022/11/09 16:20:27;;;;;;;9.60;2.72;;;14.00;99.90;;;;;;6183016;23;20062;-85
2022/11/09 16:23:11;;;;;;;8.50;2.10;;;14.00;99.90;;;;;;6181909;23;20416;-85
2022/11/09 16:25:55;;;;;;;7.43;1.88;;;14.00;99.90;;;;;;6181763;23;20075;-84
2022/11/09 16:28:39;;;;;;;8.65;2.10;;;13.90;99.90;;;;;;6181911;23;20043;-85
2022/11/09 16:31:24;;;;;;;6.53;1.50;;;13.90;99.90;;;;;;6183254;23;20411;-85
2022/11/09 16:34:08;;;;;;;4.30;1.30;;;13.90;99.90;;;;;;6183104;23;20096;-85
2022/11/09 16:36:52;;;;;;;5.43;1.42;;;13.90;99.90;;;;;;6181747;23;20023;-85
2022/11/09 16:39:37;;;;;;;6.18;1.35;;;13.90;99.90;;;;;;6181534;23;20023;-85
2022/11/09 16:42:21;;;;;;;7.35;1.65;;;13.90;99.90;;;;;;6181718;23;20020;-85
2022/11/09 16:45:11;;;;;;;6.80;1.90;;;13.80;99.90;;;;;;6181631;23;20019;-84
2022/11/09 16:47:56;;;;;;;9.32;2.08;;;13.80;99.90;;;;;;6182882;23;20379;-84
2022/11/09 16:50:41;;;;;;;8.02;1.50;;;13.80;99.90;;;;;;6181539;23;20015;-85
2022/11/09 16:53:26;;;;;;;8.00;1.67;;;13.70;99.90;;;;;;6182974;23;20020;-84
2022/11/09 16:56:10;;;;;;;9.70;2.10;;;13.70;99.90;;;;;;6182486;23;20352;-85
2022/11/09 16:58:55;;;;;;;7.68;2.13;;;13.80;99.90;;;;;;6181481;23;20047;-84
2022/11/09 17:01:39;;;;;;;6.93;1.88;;;13.70;99.90;;;;;;6183352;23;20020;-85
2022/11/09 17:04:24;;;;;;;7.13;1.98;;;13.70;99.90;;;;;;6182880;23;20059;-84
2022/11/09 17:07:09;;;;;;;5.60;1.52;;;13.70;99.90;;;;;;6182837;23;20348;-85
2022/11/09 17:09:54;;;;;;;6.00;1.60;;;13.70;99.90;;;;;;6182150;23;20104;-84
2022/11/09 17:12:38;;;;;;;6.78;1.50;;;13.70;99.90;;;;;;6202628;23;20051;-85
2022/11/09 17:15:23;;;;;;;6.18;1.50;;;13.70;99.90;;;;;;6181723;23;20079;-85
2022/11/09 17:18:08;;;;;;;7.38;1.90;;;13.70;99.90;;;;;;6181443;23;20514;-86
2022/11/09 17:20:52;;;;;;;9.65;2.10;;;13.60;99.90;;;;;;6181605;23;20044;-85
2022/11/09 17:57:07;;;;;;;8.25;3.38;;;13.60;99.90;;;;;;6220245;22;20106;-85
2022/11/09 17:59:51;;;;;;;9.60;3.30;;;13.70;99.90;;;;;;6240229;23;20070;-86
2022/11/09 18:02:35;;;;;;;7.97;2.90;;;13.80;99.90;;;;;;6241791;23;20023;-86
2022/11/09 18:05:30;;;;;;;11.43;3.13;;;13.80;99.90;;;;;;6241081;23;20035;-86
2022/11/09 18:08:17;;;;;;;8.90;2.22;;;13.90;99.90;;;;;;6243037;23;20023;-86
2022/11/09 18:11:07;;;;;;;8.63;2.10;;;13.90;99.90;;;;;;6242637;23;20027;-86
2022/11/09 18:13:52;;;;;;;7.13;1.65;;;13.90;99.90;;;;;;6243773;23;20027;-86
2022/11/09 18:16:40;;;;;;;9.05;2.20;;;14.00;99.90;;;;;;6241498;23;20019;-86
2022/11/09 18:19:24;;;;;;;6.45;2.20;;;14.00;99.90;;;;;;6241424;23;20347;-86
2022/11/09 18:22:11;;;;;;;8.52;1.70;;;14.00;99.90;;;;;;6243108;23;20073;-86
2022/11/09 18:24:56;;;;;;;8.60;2.55;;;13.90;99.90;;;;;;6242020;23;20122;-86
2022/11/09 18:27:40;;;;;;;13.73;4.68;;;14.00;99.90;;;;;;6242714;23;20063;-86
2022/11/09 18:30:43;;;;;;;5.40;1.50;;;13.90;99.90;;;;;;6241198;23;20138;-86
2022/11/09 18:36:11;;;;;;;;;;;13.90;99.90;;;;;;6184419;23;20061;-87
2022/11/09 18:38:55;;;;;;;9.38;2.60;;;13.90;99.90;;;;;;6160363;23;19942;-87
2022/11/09 18:41:42;;;;;;;5.93;1.50;;;13.80;99.90;;;;;;6160536;23;20103;-87
2022/11/09 18:44:33;;;;;;;6.68;2.08;;;13.70;99.90;;;;;;6153121;23;20020;-87
2022/11/09 18:47:27;;;;;;;7.38;2.45;;;13.70;99.90;;;;;;6151344;23;20032;-87
2022/11/09 18:50:17;;;;;;;6.88;1.58;;;13.70;99.90;;;;;;6150382;23;20353;-87
2022/11/09 18:53:10;;;;;;;8.45;1.58;;;13.60;99.90;;;;;;6153152;23;20700;-86
2022/11/09 18:56:02;;;;;;;6.78;2.00;;;13.60;99.90;;;;;;6152041;23;20060;-86
2022/11/09 19:02:48;;;;;;;7.55;1.60;;;13.60;99.90;;;;;;5977557;24;20357;-88
2022/11/09 19:05:58;;;;;;;8.18;1.52;;;13.50;99.90;;;;;;6006461;23;20029;-87
2022/11/09 19:11:52;;;;;;;7.57;2.35;;;13.50;99.90;;;;;;6153040;23;20023;-86
2022/11/09 19:14:39;;;;;;;5.10;1.83;;;13.50;99.90;;;;;;6153559;23;20016;-84
2022/11/09 19:17:24;;;;;;;7.28;2.08;;;13.50;99.90;;;;;;6151539;23;20468;-85
2022/11/09 19:26:38;;;;;;;8.25;2.65;;;13.50;99.90;;;;;;6209919;22;20443;-86
2022/11/09 19:29:22;;;;;;;8.35;3.22;;;13.50;99.90;;;;;;6190688;23;20065;-85
2022/11/09 19:32:11;;;;;;;11.73;3.25;;;13.40;99.90;;;;;;6211490;23;20019;-87
2022/11/09 19:34:55;;;;;;;7.72;2.72;;;13.40;99.90;;;;;;6191001;23;20020;-87
2022/11/09 19:37:39;;;;;;;8.85;2.42;;;13.40;99.90;;;;;;6213401;23;20016;-85
2022/11/09 19:40:23;;;;;;;7.93;2.83;;;13.40;99.90;;;;;;6210662;23;20048;-85
2022/11/09 19:43:14;;;;;;;9.27;2.50;;;13.40;99.90;;;;;;6213606;23;20691;-85